Time;durP1;ratioP1;P1;durP2;ratioP2;P2;SDS_P1;SDS_P2;PMS_P1;PMS_P2;Temp;Humidity;BMP_temperature;BMP_pressure;BME280_temperature;BME280_humidity;BME280_pressure;Samples;Min_cycle;Max_cycle;Signal;HPM_P1;HPM_P2
2021/01/23 00:00:08;;;;;;;9.05;6.82;;;;;;;4.51;78.53;98410.34;5073216;28;20071;-74
2021/01/23 00:02:40;;;;;;;10.18;6.65;;;;;;;4.54;78.31;98412.59;5057647;28;20050;-74
2021/01/23 00:05:07;;;;;;;10.82;6.97;;;;;;;4.56;78.15;98418.59;5090543;28;20059;-74
2021/01/23 00:07:33;;;;;;;9.23;7.40;;;;;;;4.70;77.29;98419.31;5073904;28;20048;-74
2021/01/23 00:10:03;;;;;;;9.95;7.05;;;;;;;4.49;78.17;98422.44;5073432;28;20047;-74
2021/01/23 00:12:30;;;;;;;12.63;8.07;;;;;;;4.51;78.57;98425.72;5072416;28;20509;-74
2021/01/23 00:14:56;;;;;;;11.23;7.85;;;;;;;4.56;78.12;98429.41;5072460;28;20417;-75
2021/01/23 00:17:23;;;;;;;10.68;7.45;;;;;;;4.48;78.89;98426.19;5090155;28;20087;-75
2021/01/23 00:19:49;;;;;;;11.23;8.30;;;;;;;4.47;78.35;98430.75;5072981;28;20040;-74
2021/01/23 00:22:16;;;;;;;10.40;8.30;;;;;;;4.52;78.10;98425.50;5083187;28;20076;-74
2021/01/23 00:24:42;;;;;;;12.43;9.10;;;;;;;4.59;77.91;98428.13;5078985;28;20052;-74
2021/01/23 00:27:08;;;;;;;12.77;8.68;;;;;;;4.43;78.22;98415.22;5072708;28;20045;-75
2021/01/23 00:29:35;;;;;;;12.65;8.95;;;;;;;4.38;78.48;98427.50;5084406;28;20086;-75
2021/01/23 00:32:01;;;;;;;12.07;8.57;;;;;;;4.40;78.47;98421.06;5090011;28;20105;-74
2021/01/23 00:34:28;;;;;;;12.43;8.30;;;;;;;4.45;78.55;98426.63;5087197;28;20052;-74
2021/01/23 00:36:54;;;;;;;12.02;8.70;;;;;;;4.36;78.98;98421.50;5071956;28;20079;-74
2021/01/23 00:39:21;;;;;;;11.65;8.60;;;;;;;4.54;78.31;98407.22;5072148;28;20425;-74
2021/01/23 00:41:47;;;;;;;12.57;8.95;;;;;;;4.44;78.25;98412.31;5068424;28;20059;-75
2021/01/23 00:44:13;;;;;;;11.88;8.82;;;;;;;4.49;78.41;98412.47;5089924;28;20507;-75
2021/01/23 00:46:40;;;;;;;12.77;9.48;;;;;;;4.56;77.96;98402.44;5090305;28;20530;-73
2021/01/23 00:49:07;;;;;;;12.02;8.82;;;;;;;4.42;78.65;98411.69;5042577;28;20075;-74
2021/01/23 00:51:34;;;;;;;13.82;9.63;;;;;;;4.45;78.84;98416.66;5052780;28;20060;-74
2021/01/23 00:54:07;;;;;;;15.30;10.13;;;;;;;4.51;78.68;98413.06;5036752;28;20045;-74
2021/01/23 00:56:33;;;;;;;13.25;9.25;;;;;;;4.42;78.49;98410.88;5069004;28;20040;-74
2021/01/23 00:59:00;;;;;;;15.10;9.15;;;;;;;4.41;78.28;98415.44;5068321;28;20142;-74
2021/01/23 01:01:26;;;;;;;15.75;10.10;;;;;;;4.40;78.86;98405.69;5074931;28;20421;-74
2021/01/23 01:03:53;;;;;;;14.68;9.38;;;;;;;4.50;78.96;98397.94;5093832;28;20055;-74
2021/01/23 01:06:20;;;;;;;12.30;9.57;;;;;;;4.49;78.33;98396.28;5058749;28;20044;-74
2021/01/23 01:08:46;;;;;;;15.23;9.05;;;;;;;4.42;78.26;98394.69;5075626;28;20050;-74
2021/01/23 01:11:12;;;;;;;12.02;8.63;;;;;;;4.46;78.77;98391.34;5093291;28;20619;-74
2021/01/23 01:13:39;;;;;;;14.25;9.27;;;;;;;4.31;78.88;98388.16;5093216;28;20036;-74
2021/01/23 01:16:06;;;;;;;13.25;9.27;;;;;;;4.43;78.37;98386.38;5058868;28;20040;-75
2021/01/23 01:18:33;;;;;;;13.48;9.35;;;;;;;4.28;78.91;98384.03;5092985;28;20052;-74
2021/01/23 01:20:59;;;;;;;12.02;9.00;;;;;;;4.35;78.70;98384.78;5075416;28;20054;-75
2021/01/23 01:23:26;;;;;;;12.23;9.38;;;;;;;4.23;78.67;98375.75;5070829;28;20048;-75
2021/01/23 01:25:52;;;;;;;13.57;9.90;;;;;;;4.12;79.28;98384.59;5093165;28;20040;-75
2021/01/23 01:28:19;;;;;;;14.80;9.82;;;;;;;4.01;79.75;98375.34;5092921;28;20655;-75
2021/01/23 01:30:45;;;;;;;13.35;9.63;;;;;;;4.01;80.36;98369.94;5092926;28;20040;-75
2021/01/23 01:33:12;;;;;;;14.13;9.88;;;;;;;4.20;78.55;98360.03;5058151;28;20052;-74
2021/01/23 01:35:39;;;;;;;13.98;10.00;;;;;;;4.20;78.54;98364.59;5093731;28;20040;-74
2021/01/23 01:38:07;;;;;;;14.20;10.25;;;;;;;4.15;79.19;98367.16;5098690;28;20105;-74
2021/01/23 01:40:34;;;;;;;13.37;10.27;;;;;;;4.16;79.33;98360.72;5095004;28;20421;-74
2021/01/23 01:43:00;;;;;;;15.25;10.25;;;;;;;4.18;79.48;98356.72;5092785;28;20048;-75
2021/01/23 01:45:27;;;;;;;14.40;10.48;;;;;;;4.18;79.26;98353.19;5066303;22;20045;-74
2021/01/23 01:47:54;;;;;;;15.32;10.32;;;;;;;4.24;78.79;98360.41;4997748;28;20137;-74
2021/01/23 01:50:20;;;;;;;15.20;10.18;;;;;;;4.17;78.72;98355.06;5046224;28;20052;-74
2021/01/23 01:52:50;;;;;;;16.08;10.20;;;;;;;3.79;80.81;98374.06;5011636;28;20044;-74
2021/01/23 01:55:16;;;;;;;14.43;9.77;;;;;;;4.10;79.01;98365.13;5018041;28;20087;-74
2021/01/23 01:57:42;;;;;;;14.15;10.18;;;;;;;4.11;79.57;98360.53;5052182;28;20661;-73
2021/01/23 02:00:09;;;;;;;14.60;9.55;;;;;;;4.11;78.84;98357.84;5027104;28;20041;-73
2021/01/23 02:03:04;;;;;;;14.25;10.15;;;;;;;4.16;78.68;98366.09;5035180;28;20045;-74
2021/01/23 02:05:36;;;;;;;14.60;10.02;;;;;;;4.13;79.09;98370.06;5017025;28;20068;-75
2021/01/23 02:08:12;;;;;;;14.18;10.13;;;;;;;4.16;78.75;98374.19;5017969;28;20510;-72
2021/01/23 02:11:03;;;;;;;15.70;10.38;;;;;;;4.01;79.82;98371.81;5017885;28;20053;-74
2021/01/23 02:13:31;;;;;;;15.20;10.18;;;;;;;4.09;79.53;98368.84;5034440;28;20499;-74
2021/01/23 02:16:00;;;;;;;18.02;10.70;;;;;;;4.11;79.31;98376.72;5017630;28;20087;-74
2021/01/23 02:18:29;;;;;;;13.80;10.10;;;;;;;4.15;79.47;98375.25;5034403;28;20053;-74
2021/01/23 02:21:11;;;;;;;18.42;10.80;;;;;;;3.98;79.98;98389.25;4997656;28;20053;-73
2021/01/23 02:23:38;;;;;;;15.68;9.95;;;;;;;4.16;79.11;98380.38;5026503;28;20088;-73
2021/01/23 02:26:14;;;;;;;13.23;9.45;;;;;;;4.22;79.21;98392.97;5034114;28;20098;-73
2021/01/23 02:28:52;;;;;;;13.25;9.20;;;;;;;4.21;79.06;98387.81;5051572;28;20072;-74
2021/01/23 02:31:20;;;;;;;14.50;9.55;;;;;;;4.31;78.54;98393.53;5034044;28;20589;-74
2021/01/23 02:33:50;;;;;;;14.65;9.40;;;;;;;4.29;78.03;98390.22;5033673;28;20060;-74
2021/01/23 02:36:19;;;;;;;12.57;9.23;;;;;;;4.34;77.92;98390.41;5019659;28;20084;-74
2021/01/23 02:38:45;;;;;;;13.98;9.75;;;;;;;4.35;78.27;98389.34;5033919;28;20073;-74
2021/01/23 02:41:13;;;;;;;15.32;10.20;;;;;;;4.23;78.54;98397.31;5017551;28;20053;-73
2021/01/23 02:43:44;;;;;;;16.50;9.23;;;;;;;4.31;77.77;98397.06;5017653;28;20045;-74
2021/01/23 02:46:13;;;;;;;13.07;8.65;;;;;;;4.31;77.54;98394.38;5033513;28;20049;-74
2021/01/23 02:48:40;;;;;;;15.13;9.43;;;;;;;4.28;78.08;98393.97;5017018;28;20114;-74
2021/01/23 02:51:12;;;;;;;14.65;9.10;;;;;;;4.32;77.83;98395.19;5003785;28;20052;-74
2021/01/23 02:53:39;;;;;;;12.88;8.98;;;;;;;4.19;78.92;98392.59;5014701;28;20538;-74
2021/01/23 02:56:14;;;;;;;15.23;9.70;;;;;;;4.33;77.86;98391.44;5016951;28;20049;-74
2021/01/23 02:58:41;;;;;;;12.57;9.05;;;;;;;4.25;77.47;98389.03;5033384;28;20526;-74
2021/01/23 03:01:08;;;;;;;13.55;8.90;;;;;;;4.25;78.84;98395.25;5016750;28;20132;-74
2021/01/23 03:03:35;;;;;;;16.60;9.05;;;;;;;4.32;78.75;98397.88;5014210;28;20046;-74
2021/01/23 03:06:03;;;;;;;12.35;8.45;;;;;;;4.36;78.59;98391.84;5032765;28;20155;-74
2021/01/23 03:08:30;;;;;;;15.13;9.20;;;;;;;4.25;78.97;98394.41;5016546;28;20045;-74
2021/01/23 03:10:57;;;;;;;14.57;9.48;;;;;;;4.36;78.18;98396.41;5013880;28;20139;-74
2021/01/23 03:13:23;;;;;;;13.65;9.50;;;;;;;4.36;78.33;98396.41;5027720;28;20474;-74
2021/01/23 03:15:50;;;;;;;13.40;9.30;;;;;;;4.35;78.60;98394.75;5013307;28;20046;-73
2021/01/23 03:18:16;;;;;;;13.93;9.25;;;;;;;4.39;78.39;98395.97;5026934;28;20507;-74
2021/01/23 03:20:43;;;;;;;17.10;9.73;;;;;;;4.32;79.60;98395.19;5033104;28;20155;-74
2021/01/23 03:23:09;;;;;;;14.27;9.63;;;;;;;4.47;78.84;98394.88;5033158;28;20095;-74
2021/01/23 03:25:36;;;;;;;14.27;9.32;;;;;;;4.45;78.87;98388.88;5032695;28;20499;-74
2021/01/23 03:28:02;;;;;;;15.80;10.45;;;;;;;4.43;79.44;98386.38;5032760;28;20518;-73
2021/01/23 03:30:29;;;;;;;12.73;9.55;;;;;;;4.32;80.89;98387.94;5050442;28;20068;-73
2021/01/23 03:32:56;;;;;;;15.10;10.70;;;;;;;4.28;80.56;98384.03;5050807;28;20052;-74
2021/01/23 03:35:24;;;;;;;12.80;9.32;;;;;;;4.21;81.56;98385.13;5016408;28;20052;-74
2021/01/23 03:37:50;;;;;;;15.40;10.38;;;;;;;4.09;82.50;98384.19;5016501;28;20095;-73
2021/01/23 03:40:17;;;;;;;14.85;9.75;;;;;;;4.18;81.66;98382.84;5012892;28;20611;-73
2021/01/23 03:42:43;;;;;;;15.20;10.40;;;;;;;4.06;82.68;98376.53;5031063;28;20182;-73
2021/01/23 03:45:10;;;;;;;16.33;10.27;;;;;;;3.97;82.62;98371.41;5032591;28;20099;-73
2021/01/23 03:47:38;;;;;;;17.17;10.57;;;;;;;3.88;83.23;98366.50;5032601;28;20127;-75
2021/01/23 03:50:07;;;;;;;15.82;10.43;;;;;;;3.91;83.53;98372.28;5016626;28;20052;-74
2021/01/23 03:52:34;;;;;;;14.52;10.27;;;;;;;3.87;83.93;98368.38;5032562;28;20077;-74
2021/01/23 03:55:01;;;;;;;15.18;10.50;;;;;;;3.77;84.28;98364.53;5016044;28;20522;-74
2021/01/23 03:57:28;;;;;;;16.98;11.73;;;;;;;3.80;84.48;98356.84;5016091;28;20099;-74
2021/01/23 03:59:54;;;;;;;18.38;11.93;;;;;;;3.83;84.04;98353.69;5032437;28;20053;-74
2021/01/23 04:02:22;;;;;;;16.65;11.02;;;;;;;3.70;84.04;98348.41;5049607;28;20055;-74
2021/01/23 04:04:48;;;;;;;16.05;11.00;;;;;;;3.67;84.64;98354.25;5015802;28;20156;-74
2021/01/23 04:07:14;;;;;;;17.65;11.50;;;;;;;3.62;85.14;98352.19;5032474;28;20053;-74
2021/01/23 04:09:41;;;;;;;18.02;11.52;;;;;;;3.69;84.19;98352.16;5050093;28;20059;-74
2021/01/23 04:12:07;;;;;;;19.27;11.60;;;;;;;3.60;85.37;98338.13;4996904;28;20049;-74
2021/01/23 04:14:34;;;;;;;17.50;11.68;;;;;;;3.55;85.45;98337.13;5032246;28;20070;-74
2021/01/23 04:17:00;;;;;;;21.55;12.18;;;;;;;3.48;85.45;98333.63;5016035;28;20132;-74
2021/01/23 04:19:26;;;;;;;18.70;12.18;;;;;;;3.47;85.45;98329.28;5032362;28;20091;-74
2021/01/23 04:21:53;;;;;;;22.08;12.85;;;;;;;3.40;85.89;98331.22;5012526;28;20080;-75
2021/01/23 04:24:19;;;;;;;20.27;12.45;;;;;;;3.32;85.60;98318.84;5029330;28;20049;-74
2021/01/23 04:26:45;;;;;;;20.17;13.50;;;;;;;3.38;86.35;98322.53;5032656;28;20120;-74
2021/01/23 04:29:12;;;;;;;20.58;12.57;;;;;;;3.38;86.16;98319.84;5019834;28;20538;-74
2021/01/23 04:31:39;;;;;;;23.27;13.15;;;;;;;3.38;86.39;98322.53;5036512;28;20049;-75
2021/01/23 04:34:05;;;;;;;19.38;12.50;;;;;;;3.36;86.13;98320.06;5036027;28;20567;-74
2021/01/23 04:36:32;;;;;;;23.58;13.75;;;;;;;3.22;86.61;98319.31;5035942;28;20522;-74
2021/01/23 04:38:58;;;;;;;20.77;13.38;;;;;;;3.25;86.65;98321.56;5019902;28;20115;-73
2021/01/23 04:41:29;;;;;;;21.65;13.40;;;;;;;3.24;86.69;98319.91;5036166;28;20041;-72
2021/01/23 04:43:56;;;;;;;21.92;13.05;;;;;;;3.26;86.63;98319.69;5019327;28;20071;-74
2021/01/23 04:46:22;;;;;;;22.75;13.00;;;;;;;3.27;86.83;98324.03;5035900;28;20048;-73
2021/01/23 04:48:49;;;;;;;21.48;12.50;;;;;;;3.23;86.40;98326.34;5019725;28;20116;-74
2021/01/23 04:51:15;;;;;;;20.83;12.68;;;;;;;3.18;86.33;98315.38;5035706;28;20510;-73
2021/01/23 04:53:45;;;;;;;20.70;11.50;;;;;;;3.17;86.17;98319.13;5036080;28;20056;-73
2021/01/23 04:56:12;;;;;;;20.48;12.63;;;;;;;3.11;86.21;98313.78;5018539;28;20522;-74
2021/01/23 04:58:39;;;;;;;21.90;12.27;;;;;;;3.10;86.36;98321.03;5036213;28;20059;-73
2021/01/23 05:01:05;;;;;;;18.80;11.70;;;;;;;3.10;86.19;98315.66;5053256;28;20048;-73
2021/01/23 05:03:54;;;;;;;19.95;11.48;;;;;;;2.98;86.21;98315.50;5053224;28;20084;-73
2021/01/23 05:06:21;;;;;;;20.40;11.18;;;;;;;3.01;86.01;98320.47;5036048;28;20048;-74
2021/01/23 05:08:47;;;;;;;17.65;10.57;;;;;;;2.87;86.31;98321.53;5016063;28;20076;-73
2021/01/23 05:11:13;;;;;;;15.98;10.70;;;;;;;2.83;86.13;98324.88;5052700;28;20561;-72
2021/01/23 05:13:43;;;;;;;18.63;11.68;;;;;;;2.83;87.04;98335.63;5035394;28;20133;-72
2021/01/23 05:16:25;;;;;;;16.98;10.63;;;;;;;2.82;86.13;98331.28;5019030;28;20151;-73
2021/01/23 05:19:01;;;;;;;18.58;10.50;;;;;;;2.85;86.54;98345.13;5019053;28;20071;-74
2021/01/23 05:21:33;;;;;;;16.40;10.25;;;;;;;2.74;86.59;98342.31;5019649;28;20052;-73
2021/01/23 05:24:07;;;;;;;20.33;10.70;;;;;;;2.64;86.97;98345.44;5035326;28;20137;-73
2021/01/23 05:26:35;;;;;;;15.57;10.00;;;;;;;2.63;87.03;98346.47;5034874;28;20510;-74
2021/01/23 05:29:11;;;;;;;14.65;9.30;;;;;;;2.64;87.13;98364.25;5018730;28;20519;-72
2021/01/23 05:31:41;;;;;;;16.63;10.52;;;;;;;2.61;87.55;98353.91;5018945;28;20053;-73
2021/01/23 05:34:31;;;;;;;17.25;11.07;;;;;;;2.54;87.28;98351.25;5034826;28;20132;-73
2021/01/23 05:36:58;;;;;;;12.35;7.82;;;;;;;2.46;87.06;98354.13;5034864;28;20049;-72
2021/01/23 05:39:47;;;;;;;13.50;8.88;;;;;;;2.44;87.62;98364.28;5051553;28;20057;-72
2021/01/23 05:42:14;;;;;;;15.23;9.25;;;;;;;2.34;88.18;98369.28;5018622;28;20522;-73
2021/01/23 05:44:41;;;;;;;15.63;8.52;;;;;;;2.33;87.61;98373.00;5001991;28;20139;-73
2021/01/23 05:47:26;;;;;;;21.17;9.48;;;;;;;2.17;88.10;98373.41;5052407;28;20044;-73
2021/01/23 05:49:54;;;;;;;15.63;9.13;;;;;;;2.15;88.63;98370.94;5012925;28;20063;-73
2021/01/23 05:52:21;;;;;;;17.33;9.73;;;;;;;2.15;88.21;98370.09;5018273;28;20041;-73
2021/01/23 05:54:47;;;;;;;17.25;9.35;;;;;;;2.07;88.46;98381.09;5034376;28;20080;-72
2021/01/23 05:57:14;;;;;;;14.63;8.88;;;;;;;2.05;87.95;98369.72;5034522;28;20045;-74
2021/01/23 05:59:41;;;;;;;16.20;9.57;;;;;;;1.93;88.72;98383.75;5018001;28;20779;-73
2021/01/23 06:02:12;;;;;;;15.63;9.27;;;;;;;1.89;88.48;98390.56;5034268;28;21438;-73
2021/01/23 06:04:42;;;;;;;15.70;9.25;;;;;;;1.54;88.55;98402.50;5034558;28;20132;-73
2021/01/23 06:07:09;;;;;;;19.83;9.90;;;;;;;1.36;89.64;98408.44;5018116;28;20037;-73
2021/01/23 06:09:40;;;;;;;16.70;9.50;;;;;;;1.32;91.54;98415.25;5034715;28;20079;-72
2021/01/23 06:12:28;;;;;;;20.52;10.63;;;;;;;1.24;92.27;98418.09;5015306;28;20447;-73
2021/01/23 06:14:55;;;;;;;16.73;10.10;;;;;;;0.93;91.96;98422.09;5052101;28;20059;-73
2021/01/23 06:17:47;;;;;;;19.38;11.07;;;;;;;0.84;92.96;98419.75;5017542;28;20583;-73
2021/01/23 06:20:41;;;;;;;18.92;10.82;;;;;;;0.74;95.13;98430.00;5034302;28;20045;-73
2021/01/23 06:23:12;;;;;;;19.20;10.15;;;;;;;0.75;95.33;98426.31;5034274;28;20049;-73
2021/01/23 06:25:48;;;;;;;19.80;10.60;;;;;;;0.76;94.44;98433.31;5034222;28;20130;-73
2021/01/23 06:28:15;;;;;;;19.30;10.48;;;;;;;0.70;93.45;98436.78;5051835;28;20106;-73
2021/01/23 06:30:42;;;;;;;20.15;10.85;;;;;;;0.83;93.63;98447.59;5034110;28;20514;-72
2021/01/23 06:33:30;;;;;;;16.85;9.80;;;;;;;0.65;92.98;98451.63;5033933;28;20437;-73
2021/01/23 06:36:08;;;;;;;17.83;10.82;;;;;;;0.80;93.12;98456.03;5015303;28;20140;-73
2021/01/23 06:38:35;;;;;;;16.90;9.82;;;;;;;0.78;92.87;98453.53;5033820;28;20045;-73
2021/01/23 06:41:23;;;;;;;16.58;9.90;;;;;;;0.57;93.29;98454.44;5051293;28;20458;-73
2021/01/23 06:44:09;;;;;;;18.48;11.40;;;;;;;0.55;93.49;98448.47;5051444;28;20063;-73
2021/01/23 06:46:40;;;;;;;23.38;12.05;;;;;;;0.49;93.41;98449.25;5053576;28;20036;-73
2021/01/23 06:49:12;;;;;;;26.45;12.85;;;;;;;0.55;93.79;98453.81;5024148;28;20045;-73
2021/01/23 06:51:39;;;;;;;19.20;11.70;;;;;;;0.56;93.86;98450.13;5038848;28;20048;-72
2021/01/23 06:54:23;;;;;;;19.98;11.55;;;;;;;0.61;93.57;98452.22;5056772;28;20098;-74
2021/01/23 06:56:54;;;;;;;30.10;16.48;;;;;;;0.70;94.38;98458.22;5019799;28;20038;-73
2021/01/23 06:59:21;;;;;;;21.98;12.90;;;;;;;0.44;94.19;98449.00;5033707;28;20086;-72
2021/01/23 07:02:08;;;;;;;21.85;12.57;;;;;;;0.43;94.43;98455.38;5021416;28;20051;-73
2021/01/23 07:04:36;;;;;;;24.08;13.73;;;;;;;0.38;95.05;98465.84;5020452;28;20041;-73
2021/01/23 07:07:07;;;;;;;26.00;14.38;;;;;;;0.39;94.33;98462.13;5050690;28;20053;-73
2021/01/23 07:09:49;;;;;;;26.75;14.98;;;;;;;0.48;94.88;98469.00;5033046;28;20076;-73
2021/01/23 07:12:41;;;;;;;24.58;14.57;;;;;;;0.55;94.19;98482.47;5050844;28;20127;-73
2021/01/23 07:15:08;;;;;;;26.48;14.98;;;;;;;0.38;94.72;98486.44;5012845;28;20037;-73
2021/01/23 07:17:42;;;;;;;27.10;15.50;;;;;;;0.45;94.60;98480.13;5032570;28;20418;-73
2021/01/23 07:20:16;;;;;;;26.50;14.95;;;;;;;0.45;94.89;98474.75;5003058;28;20041;-72
2021/01/23 07:22:44;;;;;;;32.20;17.25;;;;;;;0.25;94.82;98476.47;5016668;28;20057;-72
2021/01/23 07:25:14;;;;;;;31.85;17.48;;;;;;;0.36;95.57;98467.06;5015836;28;20060;-72
2021/01/23 07:27:42;;;;;;;30.35;17.10;;;;;;;0.37;95.19;98469.53;4996399;28;20140;-73
2021/01/23 07:30:17;;;;;;;30.00;17.30;;;;;;;0.42;95.43;98474.31;5028456;28;20049;-72
2021/01/23 07:32:45;;;;;;;29.60;16.33;;;;;;;0.39;95.15;98464.00;5032171;28;20466;-73
2021/01/23 07:35:14;;;;;;;31.60;18.08;;;;;;;0.47;95.17;98462.00;5031930;28;20107;-73
2021/01/23 07:37:48;;;;;;;26.95;15.43;;;;;;;0.64;94.89;98463.38;5031792;28;20464;-72
2021/01/23 07:40:39;;;;;;;29.60;17.15;;;;;;;0.45;94.76;98469.41;5015983;28;20136;-72
2021/01/23 07:43:06;;;;;;;29.63;16.55;;;;;;;0.54;95.58;98465.56;5013037;28;20054;-73
2021/01/23 07:45:33;;;;;;;25.40;15.70;;;;;;;0.54;95.38;98454.84;5007487;23;570177;-75
2021/01/23 07:48:02;;;;;;;28.00;16.15;;;;;;;0.65;95.09;98448.13;5034093;28;20072;-75
2021/01/23 07:50:42;;;;;;;25.35;14.95;;;;;;;0.52;94.75;98456.88;5002711;28;20057;-74
2021/01/23 07:53:19;;;;;;;27.02;14.77;;;;;;;0.62;93.88;98457.38;5010291;28;20079;-74
2021/01/23 07:55:46;;;;;;;22.13;14.07;;;;;;;0.47;94.36;98455.81;5032852;28;20058;-74
2021/01/23 07:58:13;;;;;;;23.50;14.27;;;;;;;0.48;94.83;98458.28;5050806;28;20063;-75
2021/01/23 08:00:40;;;;;;;31.98;15.57;;;;;;;0.44;94.71;98462.38;5049429;28;20041;-75
2021/01/23 08:03:07;;;;;;;26.30;15.30;;;;;;;0.55;95.42;98461.84;5048610;28;20073;-75
2021/01/23 08:05:41;;;;;;;25.75;15.23;;;;;;;0.56;94.34;98462.69;5017081;28;20045;-75
2021/01/23 08:08:07;;;;;;;23.38;14.60;;;;;;;0.55;94.23;98464.53;5050652;28;20049;-75
2021/01/23 08:10:36;;;;;;;26.02;15.60;;;;;;;0.48;94.12;98457.47;5053014;28;20080;-75
2021/01/23 08:13:07;;;;;;;;;;;;;;;0.52;94.95;98464.09;5036925;28;20576;-75
2021/01/23 08:15:37;;;;;;;25.15;14.23;;;;;;;0.78;95.05;98471.47;5036415;28;20375;-75
2021/01/23 08:18:17;;;;;;;28.45;15.52;;;;;;;0.68;94.14;98471.03;5020363;28;20041;-75
2021/01/23 08:20:44;;;;;;;26.83;15.23;;;;;;;0.71;94.23;98463.38;5036413;28;20055;-74
2021/01/23 08:23:12;;;;;;;27.88;15.43;;;;;;;0.79;94.24;98473.97;5020063;28;20072;-74
2021/01/23 08:25:48;;;;;;;26.10;14.88;;;;;;;0.76;93.82;98470.84;5037446;28;20049;-75
2021/01/23 08:28:35;;;;;;;27.10;15.77;;;;;;;0.68;94.31;98471.84;5039969;28;20049;-75
2021/01/23 08:31:24;;;;;;;27.17;15.65;;;;;;;0.89;94.05;98473.63;5033255;28;20131;-75
2021/01/23 08:33:54;;;;;;;21.95;13.32;;;;;;;1.02;94.13;98471.03;5014878;28;20062;-75
2021/01/23 08:36:30;;;;;;;22.10;12.98;;;;;;;1.29;93.39;98462.06;5020151;28;20081;-75
2021/01/23 08:39:06;;;;;;;21.58;13.80;;;;;;;1.13;92.56;98451.66;5049149;28;20061;-75
2021/01/23 08:41:33;;;;;;;20.73;12.90;;;;;;;1.05;93.19;98461.72;5045274;28;20146;-76
2021/01/23 08:43:59;;;;;;;22.20;13.90;;;;;;;1.03;93.20;98464.63;5043383;28;20046;-75
2021/01/23 08:46:26;;;;;;;27.42;16.50;;;;;;;1.02;93.02;98471.03;4991994;28;20518;-75
2021/01/23 08:48:54;;;;;;;24.02;14.77;;;;;;;1.19;92.99;98476.88;5007833;28;20049;-75
2021/01/23 08:51:20;;;;;;;22.38;13.43;;;;;;;1.11;93.33;98475.19;5052261;28;20049;-75
2021/01/23 08:53:47;;;;;;;22.67;13.60;;;;;;;1.49;92.52;98472.88;5035086;28;20410;-75
2021/01/23 08:56:15;;;;;;;21.55;13.15;;;;;;;1.32;92.94;98477.78;5039656;28;20056;-75
2021/01/23 08:58:42;;;;;;;29.03;17.57;;;;;;;1.12;92.93;98476.00;5052316;28;20442;-75
2021/01/23 09:01:08;;;;;;;27.38;16.55;;;;;;;1.35;93.77;98479.25;5051979;28;20081;-75
2021/01/23 09:03:35;;;;;;;22.02;14.55;;;;;;;1.31;92.95;98484.19;5019341;28;20111;-75
2021/01/23 09:06:02;;;;;;;24.38;15.57;;;;;;;1.36;93.60;98478.22;5038414;28;20057;-74
2021/01/23 09:08:29;;;;;;;24.92;14.98;;;;;;;1.45;93.18;98477.00;5064561;28;20109;-75
2021/01/23 09:10:58;;;;;;;25.40;14.88;;;;;;;1.51;93.21;98484.25;5064791;28;20112;-74
2021/01/23 09:13:24;;;;;;;26.00;13.57;;;;;;;1.42;92.93;98481.94;5062359;28;20073;-75
2021/01/23 09:15:51;;;;;;;26.20;15.98;;;;;;;1.63;92.64;98484.50;5051806;28;20609;-75
2021/01/23 09:18:17;;;;;;;24.30;15.50;;;;;;;1.71;93.14;98484.31;5051834;28;20133;-75
2021/01/23 09:20:44;;;;;;;25.52;15.25;;;;;;;1.64;92.85;98486.16;5052021;28;20519;-75
2021/01/23 09:23:10;;;;;;;27.25;15.93;;;;;;;1.60;92.41;98479.53;5035176;28;20041;-75
2021/01/23 09:25:36;;;;;;;25.52;14.90;;;;;;;1.64;92.02;98488.84;5044627;28;20045;-75
2021/01/23 09:28:03;;;;;;;22.63;13.73;;;;;;;1.92;91.93;98484.16;5035327;28;20076;-75
2021/01/23 09:30:29;;;;;;;31.02;16.65;;;;;;;1.50;90.77;98490.63;5051916;28;20076;-74
2021/01/23 09:32:55;;;;;;;28.13;16.30;;;;;;;1.53;92.27;98489.41;5035359;28;20045;-75
2021/01/23 09:35:22;;;;;;;25.83;15.40;;;;;;;1.87;90.64;98486.63;5041494;28;20582;-75
2021/01/23 09:37:48;;;;;;;28.77;16.55;;;;;;;1.89;90.49;98489.09;5038652;28;20048;-74
2021/01/23 09:40:14;;;;;;;27.05;16.17;;;;;;;2.04;91.00;98492.47;5053411;28;20049;-75
2021/01/23 09:42:41;;;;;;;31.88;17.23;;;;;;;2.12;91.62;98486.88;5026040;28;20057;-75
2021/01/23 09:45:08;;;;;;;30.10;17.13;;;;;;;2.06;92.08;98486.88;5044542;28;20426;-75
2021/01/23 09:47:34;;;;;;;32.88;17.45;;;;;;;2.01;91.51;98480.25;5033940;28;20103;-75
2021/01/23 09:50:02;;;;;;;29.20;16.75;;;;;;;2.12;91.61;98473.44;5051258;28;20134;-75
2021/01/23 09:52:29;;;;;;;31.67;16.92;;;;;;;2.42;91.00;98471.22;5034871;28;20216;-75
2021/01/23 09:54:56;;;;;;;28.90;16.77;;;;;;;2.31;89.05;98482.56;5050557;28;20049;-74
2021/01/23 09:57:22;;;;;;;32.05;17.42;;;;;;;2.24;90.45;98477.19;5050822;28;20053;-75
2021/01/23 09:59:48;;;;;;;35.85;18.40;;;;;;;2.08;90.29;98466.03;5050925;28;20049;-75
2021/01/23 10:02:16;;;;;;;34.03;19.45;;;;;;;2.47;89.88;98460.63;5051116;28;20193;-75
2021/01/23 10:04:43;;;;;;;34.05;19.75;;;;;;;1.95;90.67;98459.59;5018426;28;20045;-75
2021/01/23 10:07:09;;;;;;;39.45;18.55;;;;;;;2.21;90.77;98460.63;5034514;28;20055;-75
2021/01/23 10:09:36;;;;;;;39.97;20.02;;;;;;;2.24;91.64;98446.78;5034173;28;20569;-75
2021/01/23 10:12:03;;;;;;;32.08;18.27;;;;;;;2.34;91.62;98449.91;5034299;28;20144;-75
2021/01/23 10:14:29;;;;;;;37.17;19.95;;;;;;;2.28;91.73;98456.09;5051968;28;20049;-75
2021/01/23 10:16:55;;;;;;;33.40;18.73;;;;;;;2.78;91.53;98451.09;5050731;28;20068;-75
2021/01/23 10:19:22;;;;;;;27.73;17.17;;;;;;;2.92;89.02;98450.03;5051908;28;20164;-75
2021/01/23 10:21:48;;;;;;;30.80;18.15;;;;;;;2.80;88.96;98457.91;5051209;28;20049;-74
2021/01/23 10:24:15;;;;;;;31.05;17.67;;;;;;;2.85;88.60;98459.97;5033326;28;20136;-74
2021/01/23 10:26:41;;;;;;;33.97;18.75;;;;;;;2.89;88.00;98458.53;5039827;28;20107;-75
2021/01/23 10:29:07;;;;;;;34.90;17.58;;;;;;;3.04;88.81;98448.34;5030807;28;20095;-76
2021/01/23 10:31:34;;;;;;;30.70;16.50;;;;;;;3.24;86.75;98451.78;5031069;28;20056;-75
2021/01/23 10:34:00;;;;;;;29.85;16.83;;;;;;;3.31;85.98;98454.47;5031505;28;20040;-72
2021/01/23 10:36:27;;;;;;;27.00;15.13;;;;;;;3.36;86.22;98455.50;5042589;28;20053;-73
2021/01/23 10:38:54;;;;;;;29.75;16.80;;;;;;;3.12;86.49;98453.47;5021019;28;20057;-76
2021/01/23 10:41:20;;;;;;;33.50;17.30;;;;;;;3.26;86.87;98451.59;5032826;28;20140;-72
2021/01/23 10:43:47;;;;;;;26.85;15.98;;;;;;;3.25;86.90;98448.06;5046801;28;20051;-74
2021/01/23 10:46:13;;;;;;;27.65;15.18;;;;;;;3.44;86.45;98454.44;5030251;28;20054;-73
2021/01/23 10:48:40;;;;;;;25.30;14.23;;;;;;;3.57;84.86;98448.13;5001051;28;20049;-73
2021/01/23 10:51:08;;;;;;;25.17;14.90;;;;;;;3.66;84.59;98454.94;5016904;28;20052;-73
2021/01/23 10:53:35;;;;;;;24.30;14.38;;;;;;;3.69;85.23;98449.13;5033464;28;20059;-76
2021/01/23 10:56:02;;;;;;;25.73;15.43;;;;;;;3.75;85.27;98455.53;5049984;28;20048;-73
2021/01/23 10:58:28;;;;;;;23.42;14.15;;;;;;;3.80;85.25;98456.53;5020864;28;20060;-75
2021/01/23 11:00:56;;;;;;;25.58;14.70;;;;;;;3.73;85.47;98461.13;5010718;28;20049;-75
2021/01/23 11:03:22;;;;;;;22.45;13.95;;;;;;;3.81;85.49;98463.53;5033632;28;20124;-73
2021/01/23 11:05:51;;;;;;;25.92;13.52;;;;;;;3.96;84.41;98466.78;5017086;28;20095;-75
2021/01/23 11:08:17;;;;;;;22.25;12.70;;;;;;;3.92;83.60;98464.72;5049824;28;20111;-76
2021/01/23 11:10:44;;;;;;;20.75;12.60;;;;;;;3.78;84.44;98458.63;5049610;28;20077;-73
2021/01/23 11:13:10;;;;;;;25.05;13.95;;;;;;;3.81;85.00;98463.53;5033082;28;20546;-72
2021/01/23 11:15:36;;;;;;;24.40;12.70;;;;;;;3.84;83.03;98467.66;5049359;28;20073;-75
2021/01/23 11:18:03;;;;;;;22.98;12.88;;;;;;;3.62;86.02;98469.88;5036642;28;20134;-75
2021/01/23 11:20:31;;;;;;;20.53;12.33;;;;;;;3.57;83.62;98475.06;5012811;28;20111;-74
2021/01/23 11:22:57;;;;;;;20.35;11.88;;;;;;;3.74;85.09;98468.16;5033401;28;20379;-74
2021/01/23 11:25:26;;;;;;;24.00;12.25;;;;;;;3.56;85.19;98470.72;5037643;28;20052;-74
2021/01/23 11:27:52;;;;;;;18.80;12.10;;;;;;;3.61;84.75;98463.66;5013632;28;20083;-75
2021/01/23 11:30:21;;;;;;;23.50;12.60;;;;;;;3.85;84.20;98474.72;5018112;28;20700;-74
2021/01/23 11:32:48;;;;;;;18.88;11.30;;;;;;;3.92;83.30;98470.94;5050860;28;20124;-74
2021/01/23 11:35:14;;;;;;;16.88;10.00;;;;;;;3.79;83.19;98471.03;5034426;28;20057;-74
2021/01/23 11:37:46;;;;;;;21.05;11.00;;;;;;;3.87;82.71;98468.06;5037339;28;20042;-74